Time;durP1;ratioP1;P1;durP2;ratioP2;P2;SDS_P1;SDS_P2;PMS_P1;PMS_P2;Temp;Humidity;BMP_temperature;BMP_pressure;BME280_temperature;BME280_humidity;BME280_pressure;Samples;Min_cycle;Max_cycle;Signal;HPM_P1;HPM_P2
2024/01/06 00:00:49;;;;;;;18.00;12.73;;;;;;;9.41;71.58;100261.09;5139669;27;20043;-70
2024/01/06 00:03:19;;;;;;;18.25;12.90;;;;;;;9.40;71.57;100262.16;5148136;27;20039;-70
2024/01/06 00:05:47;;;;;;;19.33;13.05;;;;;;;9.36;71.42;100269.84;5153774;27;20053;-71
2024/01/06 00:08:15;;;;;;;18.70;12.55;;;;;;;9.26;71.81;100264.19;5145701;27;20324;-70
2024/01/06 00:10:42;;;;;;;16.63;13.20;;;;;;;9.23;71.88;100271.88;5144841;27;20154;-70
2024/01/06 00:13:11;;;;;;;17.10;11.77;;;;;;;9.23;71.62;100272.69;5148773;27;20092;-70
2024/01/06 00:15:39;;;;;;;20.50;13.10;;;;;;;9.26;71.70;100285.66;5147164;27;20043;-70
2024/01/06 00:18:07;;;;;;;15.90;12.45;;;;;;;9.26;71.35;100280.28;5148120;27;20097;-70
2024/01/06 00:20:36;;;;;;;15.73;11.23;;;;;;;9.31;70.95;100288.47;5146154;27;20100;-70
2024/01/06 00:23:04;;;;;;;16.85;11.15;;;;;;;9.33;70.91;100293.59;5146255;27;20053;-70
2024/01/06 00:25:32;;;;;;;14.80;10.85;;;;;;;9.19;70.94;100279.56;5145554;27;20047;-70
2024/01/06 00:28:00;;;;;;;16.65;11.10;;;;;;;9.21;71.35;100290.88;5146032;27;20048;-70
2024/01/06 00:30:27;;;;;;;17.80;11.00;;;;;;;9.21;70.34;100288.19;5151607;27;20042;-70
2024/01/06 00:32:55;;;;;;;14.43;10.60;;;;;;;9.16;70.66;100292.59;5144085;27;20116;-70
2024/01/06 00:35:23;;;;;;;13.07;9.90;;;;;;;9.13;71.01;100296.53;5152897;27;20069;-71
2024/01/06 00:37:53;;;;;;;14.32;9.70;;;;;;;9.07;70.14;100302.81;5161289;27;20279;-70
2024/01/06 00:40:20;;;;;;;15.80;9.55;;;;;;;9.09;69.80;100303.41;5159531;27;20100;-70
2024/01/06 00:42:48;;;;;;;11.98;8.82;;;;;;;9.06;70.37;100301.19;5147691;27;20103;-70
2024/01/06 00:45:16;;;;;;;15.93;9.77;;;;;;;9.02;70.62;100303.50;5151338;27;20095;-70
2024/01/06 00:47:45;;;;;;;13.60;9.50;;;;;;;8.95;69.78;100291.22;5146460;27;20050;-70
2024/01/06 00:50:13;;;;;;;16.85;9.50;;;;;;;9.01;70.12;100301.84;5142034;27;20055;-70
2024/01/06 00:52:42;;;;;;;14.30;9.73;;;;;;;8.98;69.75;100298.81;5148182;27;20063;-69
2024/01/06 00:55:11;;;;;;;12.75;9.27;;;;;;;9.04;69.97;100298.72;5151481;27;20055;-70
2024/01/06 00:57:39;;;;;;;15.63;9.55;;;;;;;9.06;69.75;100309.22;5146630;27;20044;-70
2024/01/06 01:00:08;;;;;;;13.63;9.35;;;;;;;8.98;70.00;100298.81;5152810;27;20046;-70
2024/01/06 01:02:36;;;;;;;12.13;9.13;;;;;;;8.96;70.27;100312.44;5142172;27;20090;-69
2024/01/06 01:05:07;;;;;;;13.95;9.85;;;;;;;8.96;69.78;100319.66;5147563;27;20039;-70
2024/01/06 01:07:36;;;;;;;15.52;11.00;;;;;;;8.89;69.46;100322.41;5150592;27;20061;-69
2024/01/06 01:10:04;;;;;;;18.40;12.10;;;;;;;8.85;69.33;100312.34;5141191;27;20366;-70
2024/01/06 01:12:33;;;;;;;17.75;11.55;;;;;;;8.88;69.07;100322.63;5145032;27;20043;-69
2024/01/06 01:15:01;;;;;;;16.35;12.07;;;;;;;8.80;69.78;100321.88;5150976;27;20484;-68
2024/01/06 01:17:29;;;;;;;17.17;11.95;;;;;;;8.83;69.30;100323.28;5146400;27;20058;-69
2024/01/06 01:19:57;;;;;;;16.92;11.52;;;;;;;8.87;68.95;100331.72;5154022;27;20043;-69
2024/01/06 01:22:25;;;;;;;18.88;12.15;;;;;;;8.86;69.35;100338.94;5148989;27;20170;-70
2024/01/06 01:24:53;;;;;;;17.50;12.32;;;;;;;8.85;68.90;100342.66;5146691;27;20492;-70
2024/01/06 01:27:21;;;;;;;15.93;11.93;;;;;;;8.82;69.34;100340.41;5149232;27;20039;-69
2024/01/06 01:29:52;;;;;;;18.40;12.23;;;;;;;8.79;69.66;100347.03;5141554;27;20501;-70
2024/01/06 01:32:20;;;;;;;17.70;11.10;;;;;;;8.82;69.06;100343.91;5151902;27;20102;-69
2024/01/06 01:34:48;;;;;;;17.30;12.60;;;;;;;8.88;69.00;100352.91;5151923;27;20047;-69
2024/01/06 01:37:16;;;;;;;19.25;13.35;;;;;;;8.86;68.89;100343.47;5151272;27;20057;-69
2024/01/06 01:39:44;;;;;;;17.83;12.82;;;;;;;8.87;69.16;100356.63;5156245;27;20045;-69
2024/01/06 01:42:12;;;;;;;16.50;11.52;;;;;;;8.87;68.75;100356.63;5145814;27;20300;-69
2024/01/06 01:44:40;;;;;;;16.88;12.02;;;;;;;8.82;68.79;100359.16;5155617;27;20505;-69
2024/01/06 01:47:09;;;;;;;17.63;12.50;;;;;;;8.84;69.15;100367.81;5143071;27;20069;-69
2024/01/06 01:49:37;;;;;;;18.75;12.13;;;;;;;8.79;69.33;100367.66;5146235;27;20047;-69
2024/01/06 01:52:05;;;;;;;19.70;12.90;;;;;;;8.83;68.63;100363.50;5147686;27;20038;-70
2024/01/06 01:54:34;;;;;;;17.98;13.10;;;;;;;8.79;68.63;100368.47;5156168;27;20047;-69
2024/01/06 01:57:03;;;;;;;16.75;11.73;;;;;;;8.79;68.66;100373.81;5144314;27;20181;-69
2024/01/06 01:59:31;;;;;;;19.33;12.60;;;;;;;8.77;68.44;100369.72;5144860;27;20437;-69
2024/01/06 02:01:59;;;;;;;16.52;12.15;;;;;;;8.81;69.04;100377.09;5149475;27;20051;-69
2024/01/06 02:04:28;;;;;;;16.92;12.02;;;;;;;8.86;68.83;100380.97;5147428;27;20047;-69
2024/01/06 02:06:56;;;;;;;17.42;12.27;;;;;;;8.84;68.88;100375.84;5144085;27;20054;-69
2024/01/06 02:09:26;;;;;;;16.52;12.27;;;;;;;8.87;68.27;100386.13;5150912;27;20482;-69
2024/01/06 02:11:54;;;;;;;17.50;11.90;;;;;;;8.82;68.22;100370.69;5144375;27;20111;-69
2024/01/06 02:14:22;;;;;;;17.45;12.65;;;;;;;8.91;68.59;100391.84;5142968;27;20050;-69
2024/01/06 02:16:50;;;;;;;16.65;12.27;;;;;;;8.90;68.48;100387.53;5146909;27;20048;-69
2024/01/06 02:19:19;;;;;;;18.80;13.02;;;;;;;8.88;68.26;100393.13;5143822;27;20145;-70
2024/01/06 02:21:53;;;;;;;16.42;11.88;;;;;;;8.90;67.97;100400.94;5143701;27;20039;-70
2024/01/06 02:24:21;;;;;;;19.30;11.88;;;;;;;8.91;68.39;100407.94;5149570;27;20047;-70
2024/01/06 02:26:49;;;;;;;15.68;11.38;;;;;;;8.88;68.10;100406.50;5157408;27;20479;-71
2024/01/06 02:29:16;;;;;;;17.95;12.30;;;;;;;8.88;68.43;100411.06;5150040;27;20046;-69
2024/01/06 02:31:44;;;;;;;16.48;11.52;;;;;;;8.87;68.09;100414.78;5146944;27;20061;-70
2024/01/06 02:34:12;;;;;;;16.90;12.02;;;;;;;8.72;68.49;100421.28;5152801;27;20046;-70
2024/01/06 02:36:40;;;;;;;16.40;12.18;;;;;;;8.74;68.25;100429.94;5149307;27;20113;-69
2024/01/06 02:39:10;;;;;;;15.40;11.25;;;;;;;8.71;68.86;100429.56;5156354;27;20134;-70
2024/01/06 02:41:37;;;;;;;14.85;10.13;;;;;;;8.64;68.85;100436.84;5150830;27;20085;-70
2024/01/06 02:44:05;;;;;;;13.75;10.32;;;;;;;8.55;68.78;100440.84;5148359;27;20454;-70
2024/01/06 02:46:36;;;;;;;12.80;10.18;;;;;;;8.47;68.63;100441.94;5144795;27;20043;-70
2024/01/06 02:49:04;;;;;;;13.20;10.13;;;;;;;8.45;68.76;100449.38;5146712;27;20058;-70
2024/01/06 02:51:32;;;;;;;13.73;9.88;;;;;;;8.42;68.35;100455.97;5142707;27;20047;-70
2024/01/06 02:54:00;;;;;;;12.20;9.30;;;;;;;8.35;67.88;100447.19;5144980;27;20068;-70
2024/01/06 02:56:29;;;;;;;12.63;9.25;;;;;;;8.41;68.30;100469.59;5148071;27;20058;-70
2024/01/06 02:58:57;;;;;;;13.98;9.38;;;;;;;8.33;68.12;100477.88;5142637;27;20042;-70
2024/01/06 03:01:24;;;;;;;11.32;8.88;;;;;;;8.29;67.20;100471.28;5143178;27;20374;-68
2024/01/06 03:03:52;;;;;;;11.65;8.43;;;;;;;8.29;67.95;100480.13;5140891;27;20053;-68
2024/01/06 03:06:20;;;;;;;11.15;8.30;;;;;;;8.24;67.35;100474.59;5146208;27;20098;-68
2024/01/06 03:08:48;;;;;;;10.45;7.43;;;;;;;8.22;67.57;100490.06;5147675;27;20480;-68
2024/01/06 03:11:16;;;;;;;11.23;8.13;;;;;;;8.19;67.45;100487.81;5150921;27;20051;-69
2024/01/06 03:13:45;;;;;;;9.82;6.60;;;;;;;8.18;67.04;100494.22;5144035;27;20292;-69
2024/01/06 03:16:13;;;;;;;9.93;6.93;;;;;;;8.19;66.68;100487.81;5142565;27;20471;-69
2024/01/06 03:18:41;;;;;;;9.57;7.15;;;;;;;8.24;67.47;100505.91;5148782;27;20047;-69
2024/01/06 03:21:18;;;;;;;8.48;6.45;;;;;;;8.19;66.48;100503.06;5147945;27;20050;-69
2024/01/06 03:23:46;;;;;;;8.25;6.40;;;;;;;8.12;66.61;100482.50;5145559;27;20125;-69
2024/01/06 03:26:14;;;;;;;8.38;6.20;;;;;;;8.20;66.73;100500.16;5149484;27;20046;-71
2024/01/06 03:28:42;;;;;;;8.63;6.43;;;;;;;8.12;66.38;100495.06;5150763;27;20044;-69
2024/01/06 03:31:11;;;;;;;7.72;6.03;;;;;;;8.17;66.27;100508.63;5141164;27;20043;-69
2024/01/06 03:33:39;;;;;;;10.40;6.72;;;;;;;8.13;65.96;100499.38;5136871;27;20051;-68
2024/01/06 03:36:08;;;;;;;10.07;6.60;;;;;;;8.17;66.26;100497.91;5144086;27;20396;-69
2024/01/06 03:38:36;;;;;;;8.63;6.55;;;;;;;8.16;66.14;100507.81;5142045;27;20050;-68
2024/01/06 03:41:04;;;;;;;7.10;5.75;;;;;;;8.12;66.28;100522.66;5143049;27;20054;-68
2024/01/06 03:43:32;;;;;;;8.80;6.78;;;;;;;8.09;66.07;100520.41;5137192;27;20051;-69
2024/01/06 03:46:00;;;;;;;9.13;6.95;;;;;;;8.06;65.81;100514.66;5141079;27;20051;-69
2024/01/06 03:48:30;;;;;;;7.80;6.20;;;;;;;8.11;65.59;100520.19;5147192;27;20043;-69
2024/01/06 03:50:58;;;;;;;8.50;6.88;;;;;;;8.18;66.70;100531.69;5144674;27;20139;-69
2024/01/06 03:53:26;;;;;;;8.35;6.22;;;;;;;8.17;66.45;100530.03;5147072;27;20047;-70
2024/01/06 03:55:54;;;;;;;7.88;5.82;;;;;;;8.21;66.66;100531.25;5153354;27;20140;-69
2024/01/06 03:58:22;;;;;;;8.65;6.53;;;;;;;8.12;66.13;100524.50;5140966;27;20047;-69
2024/01/06 04:00:49;;;;;;;8.52;6.20;;;;;;;8.17;66.77;100535.41;5146279;27;20069;-70
2024/01/06 04:03:17;;;;;;;8.93;6.28;;;;;;;8.18;66.67;100539.72;5150839;27;20148;-69
2024/01/06 04:05:46;;;;;;;8.02;5.63;;;;;;;8.10;66.08;100535.44;5148527;27;20085;-69
2024/01/06 04:08:14;;;;;;;8.73;6.38;;;;;;;8.04;66.00;100538.94;5144712;27;20063;-69
2024/01/06 04:10:42;;;;;;;8.25;6.50;;;;;;;8.00;66.21;100552.97;5143938;27;20035;-69
2024/01/06 04:13:11;;;;;;;7.35;5.60;;;;;;;7.98;66.21;100544.34;5139617;27;20035;-69
2024/01/06 04:15:39;;;;;;;9.52;6.18;;;;;;;8.00;65.86;100544.94;5134215;27;20047;-69
2024/01/06 04:18:07;;;;;;;8.90;5.70;;;;;;;7.97;65.87;100543.50;5145457;27;20068;-69
2024/01/06 04:20:36;;;;;;;7.88;5.70;;;;;;;7.95;66.29;100552.78;5158714;27;20047;-70
2024/01/06 04:23:05;;;;;;;8.10;5.05;;;;;;;7.93;66.51;100557.53;5148322;27;20040;-69
2024/01/06 04:25:33;;;;;;;7.70;6.05;;;;;;;7.95;65.28;100560.81;5149130;27;20051;-69
2024/01/06 04:28:01;;;;;;;7.35;5.65;;;;;;;8.05;65.71;100558.50;5144775;27;20046;-69
2024/01/06 04:30:29;;;;;;;6.10;5.07;;;;;;;8.08;66.05;100563.44;5146017;27;20054;-69
2024/01/06 04:32:57;;;;;;;8.27;5.30;;;;;;;8.10;66.09;100567.53;5145132;27;20042;-69
2024/01/06 04:35:26;;;;;;;6.15;4.38;;;;;;;8.15;65.77;100566.91;5155711;27;20054;-68
2024/01/06 04:37:54;;;;;;;6.60;4.60;;;;;;;8.20;65.37;100572.44;5144277;27;20035;-69
2024/01/06 04:40:23;;;;;;;5.93;4.13;;;;;;;8.19;65.51;100578.84;5153634;27;20043;-69
2024/01/06 04:42:51;;;;;;;7.20;4.30;;;;;;;8.10;65.42;100586.28;5145586;27;20046;-69
2024/01/06 04:45:19;;;;;;;6.53;4.18;;;;;;;8.10;65.56;100580.94;5145301;27;20050;-68
2024/01/06 04:47:47;;;;;;;6.85;4.95;;;;;;;8.13;65.18;100582.34;5146581;27;20054;-69
2024/01/06 04:50:14;;;;;;;6.75;4.60;;;;;;;8.18;65.39;100584.41;5145321;27;20073;-69
2024/01/06 04:52:42;;;;;;;6.22;4.25;;;;;;;8.21;66.04;100584.78;5144712;27;20064;-69
2024/01/06 04:55:10;;;;;;;6.05;4.47;;;;;;;8.22;65.86;100589.13;5141323;27;20043;-69
2024/01/06 04:57:39;;;;;;;5.57;4.63;;;;;;;8.21;65.93;100602.72;5150435;27;20438;-70
2024/01/06 05:00:08;;;;;;;5.28;4.47;;;;;;;8.11;66.12;100600.47;5144375;27;20067;-69
2024/01/06 05:02:36;;;;;;;5.80;4.57;;;;;;;8.02;66.06;100602.56;5145566;27;20044;-70
2024/01/06 05:05:04;;;;;;;6.97;5.03;;;;;;;7.96;65.54;100606.09;5143075;27;20130;-69
2024/01/06 05:07:32;;;;;;;6.30;5.28;;;;;;;8.00;65.52;100615.34;5154115;27;20046;-70
2024/01/06 05:10:00;;;;;;;7.28;4.80;;;;;;;8.04;65.32;100618.41;5159594;27;20042;-70
2024/01/06 05:12:28;;;;;;;5.63;4.63;;;;;;;8.07;65.44;100616.16;5132403;27;20068;-69
2024/01/06 05:14:57;;;;;;;5.43;4.55;;;;;;;8.09;65.34;100618.59;5152933;27;20043;-70
2024/01/06 05:17:24;;;;;;;6.82;5.65;;;;;;;8.03;65.81;100622.94;5152747;27;20051;-69
2024/01/06 05:19:53;;;;;;;7.55;5.07;;;;;;;7.93;65.68;100611.03;5154283;27;20038;-69
2024/01/06 05:22:21;;;;;;;6.32;4.45;;;;;;;7.98;64.97;100621.94;5148079;27;20093;-69
2024/01/06 05:24:52;;;;;;;7.13;5.05;;;;;;;7.88;65.21;100626.91;5139781;27;20044;-69
2024/01/06 05:27:20;;;;;;;6.15;4.50;;;;;;;7.82;65.22;100629.38;5144017;27;20071;-69
2024/01/06 05:29:49;;;;;;;5.85;4.65;;;;;;;7.74;64.77;100626.09;5150444;27;20130;-69
2024/01/06 05:32:18;;;;;;;6.00;4.35;;;;;;;7.75;65.18;100641.94;5149818;27;20098;-69
2024/01/06 05:34:46;;;;;;;5.50;4.50;;;;;;;7.72;64.73;100634.34;5151580;27;20050;-69
2024/01/06 05:37:15;;;;;;;5.82;4.63;;;;;;;7.73;65.20;100638.66;5143890;27;20058;-69
2024/01/06 05:39:43;;;;;;;5.55;3.30;;;;;;;7.68;64.94;100643.00;5141697;27;20043;-69
2024/01/06 05:42:12;;;;;;;5.35;3.40;;;;;;;7.64;65.16;100660.47;5141594;27;20058;-70
2024/01/06 05:44:40;;;;;;;5.13;3.22;;;;;;;7.63;64.99;100648.13;5142401;27;20150;-70
2024/01/06 05:47:08;;;;;;;4.68;3.10;;;;;;;7.58;64.27;100659.44;5150729;27;20054;-68
2024/01/06 05:49:37;;;;;;;3.80;2.65;;;;;;;7.52;64.28;100660.28;5139440;27;20575;-68
2024/01/06 05:52:08;;;;;;;4.57;2.70;;;;;;;7.47;64.35;100663.56;5148012;27;20226;-67
2024/01/06 05:54:35;;;;;;;2.90;2.20;;;;;;;7.46;64.92;100666.44;5146582;27;20478;-67
2024/01/06 05:57:03;;;;;;;4.95;2.80;;;;;;;7.45;64.49;100665.63;5152729;27;20038;-67
2024/01/06 05:59:34;;;;;;;4.25;2.45;;;;;;;7.39;64.63;100661.09;5149640;27;20051;-67
2024/01/06 06:02:02;;;;;;;4.43;2.50;;;;;;;7.39;63.69;100665.63;5139764;27;20036;-68
2024/01/06 06:04:30;;;;;;;3.65;2.13;;;;;;;7.43;64.44;100680.22;5135941;27;20070;-68
2024/01/06 06:06:59;;;;;;;3.78;2.70;;;;;;;7.44;64.17;100674.69;5154640;27;20047;-68
2024/01/06 06:09:29;;;;;;;4.43;2.65;;;;;;;7.46;64.57;100677.16;5153342;27;20455;-68
2024/01/06 06:11:57;;;;;;;3.67;2.75;;;;;;;7.46;64.50;100687.84;5153000;27;20042;-68
2024/01/06 06:14:25;;;;;;;3.10;2.38;;;;;;;7.42;64.05;100684.75;5152014;27;20055;-66
2024/01/06 06:16:56;;;;;;;3.90;3.00;;;;;;;7.42;64.60;100686.59;5144484;27;20145;-66
2024/01/06 06:19:24;;;;;;;2.85;2.28;;;;;;;7.42;64.41;100691.94;5137909;27;20131;-67
2024/01/06 06:21:53;;;;;;;3.28;2.60;;;;;;;7.43;64.26;100701.63;5140304;27;20050;-67
2024/01/06 06:24:22;;;;;;;5.25;3.33;;;;;;;7.41;63.56;100707.16;5144948;27;20043;-65
2024/01/06 06:26:50;;;;;;;4.85;2.70;;;;;;;7.39;64.04;100711.06;5149416;27;20355;-67
2024/01/06 06:29:18;;;;;;;6.72;3.28;;;;;;;7.42;64.07;100716.84;5163263;27;20046;-66
2024/01/06 06:31:46;;;;;;;6.07;3.75;;;;;;;7.28;63.18;100717.03;5156655;27;20050;-68
2024/01/06 06:34:14;;;;;;;5.38;3.10;;;;;;;7.17;63.99;100727.28;5150962;27;20273;-69
2024/01/06 06:36:42;;;;;;;4.85;3.15;;;;;;;7.15;64.43;100718.66;4787890;27;9999968;-68
2024/01/06 06:39:10;;;;;;;5.10;3.28;;;;;;;7.15;64.34;100725.84;5132388;27;20069;-68
2024/01/06 06:41:39;;;;;;;4.68;3.60;;;;;;;7.19;63.89;100730.59;5134231;27;20423;-68
2024/01/06 06:44:07;;;;;;;5.43;3.83;;;;;;;7.18;64.33;100730.78;5136686;27;20100;-68
2024/01/06 06:46:35;;;;;;;6.70;3.53;;;;;;;7.19;64.53;100746.63;5132657;27;20474;-72
2024/01/06 06:49:03;;;;;;;4.68;3.40;;;;;;;7.21;63.87;100745.59;5135311;27;20051;-69
2024/01/06 06:51:31;;;;;;;4.88;3.17;;;;;;;7.18;64.06;100744.97;5129927;27;20039;-68
2024/01/06 06:53:59;;;;;;;5.10;3.65;;;;;;;7.22;63.85;100745.38;5132590;27;20290;-68
2024/01/06 06:56:27;;;;;;;6.82;3.40;;;;;;;7.29;64.16;100754.25;5129226;27;20051;-68
2024/01/06 06:58:56;;;;;;;5.22;3.53;;;;;;;7.29;63.86;100764.13;5122786;27;20047;-68
2024/01/06 07:01:24;;;;;;;3.97;3.20;;;;;;;7.28;63.59;100765.97;5119852;27;20071;-69
2024/01/06 07:03:52;;;;;;;4.80;3.63;;;;;;;7.32;63.87;100763.72;5125012;27;20047;-68
2024/01/06 07:06:20;;;;;;;4.15;3.28;;;;;;;7.32;63.83;100769.88;5121273;28;20059;-68
2024/01/06 07:08:48;;;;;;;4.10;2.90;;;;;;;7.39;64.06;100773.41;5121314;27;20071;-68
2024/01/06 07:11:18;;;;;;;5.15;3.08;;;;;;;7.38;64.30;100777.09;5124007;27;20053;-68
2024/01/06 07:13:45;;;;;;;5.22;3.58;;;;;;;7.33;63.75;100794.75;5120484;27;20051;-69
2024/01/06 07:16:14;;;;;;;6.55;3.53;;;;;;;7.31;64.00;100784.28;5134775;27;20072;-71
2024/01/06 07:18:46;;;;;;;5.30;3.47;;;;;;;7.39;64.42;100792.09;5126739;27;21081;-74
2024/01/06 07:21:14;;;;;;;4.75;3.20;;;;;;;7.38;63.93;100795.81;5128426;27;20040;-73
2024/01/06 07:23:43;;;;;;;5.93;3.78;;;;;;;7.37;64.15;100801.34;5130308;27;20072;-70
2024/01/06 07:26:11;;;;;;;3.92;3.10;;;;;;;7.31;64.05;100802.16;5136583;27;20110;-68
2024/01/06 07:28:39;;;;;;;6.95;3.65;;;;;;;7.36;63.73;100810.41;5131893;27;20124;-70
2024/01/06 07:31:07;;;;;;;3.92;3.22;;;;;;;7.31;63.42;100804.84;5133003;27;20057;-69
2024/01/06 07:33:36;;;;;;;4.53;3.20;;;;;;;7.33;64.04;100814.31;5129791;27;20051;-69
2024/01/06 07:36:05;;;;;;;8.38;3.75;;;;;;;7.32;64.21;100815.31;5139823;27;20053;-72
2024/01/06 07:38:32;;;;;;;5.80;3.83;;;;;;;7.34;63.98;100817.81;5134439;27;20044;-68
2024/01/06 07:41:00;;;;;;;5.20;3.80;;;;;;;7.30;64.36;100813.88;5134993;28;20077;-69
2024/01/06 07:43:28;;;;;;;7.03;4.13;;;;;;;7.35;63.44;100814.94;5135572;27;20062;-71
2024/01/06 07:45:56;;;;;;;6.63;3.92;;;;;;;7.35;64.34;100816.78;5129526;27;20055;-70
2024/01/06 07:48:24;;;;;;;4.60;3.78;;;;;;;7.48;63.72;100822.16;5138558;27;20499;-71
2024/01/06 07:50:54;;;;;;;5.40;3.85;;;;;;;7.66;63.78;100817.06;5136350;28;20124;-73
2024/01/06 07:53:22;;;;;;;5.95;3.88;;;;;;;7.72;62.74;100818.91;5127731;28;20047;-70
2024/01/06 07:55:50;;;;;;;8.60;5.20;;;;;;;7.98;62.21;100828.00;5135575;28;20039;-67
2024/01/06 07:58:18;;;;;;;7.95;4.32;;;;;;;8.10;61.56;100829.84;5143433;27;20073;-67
2024/01/06 08:00:46;;;;;;;6.38;3.85;;;;;;;8.25;61.62;100836.84;5139124;27;20349;-68
2024/01/06 08:03:14;;;;;;;6.38;4.45;;;;;;;8.12;61.13;100848.38;5135158;28;20069;-69
2024/01/06 08:05:42;;;;;;;6.13;4.53;;;;;;;8.24;61.28;100851.25;5139612;28;20054;-70
2024/01/06 08:08:12;;;;;;;8.60;5.22;;;;;;;8.29;60.94;100843.44;5134677;28;20061;-69
2024/01/06 08:10:40;;;;;;;5.95;4.28;;;;;;;8.09;61.86;100860.31;5147153;27;20107;-68
2024/01/06 08:13:08;;;;;;;7.68;5.25;;;;;;;7.79;63.18;100854.53;5139790;27;20199;-67
2024/01/06 08:15:36;;;;;;;6.72;4.97;;;;;;;7.80;62.56;100858.03;5137006;27;20075;-70
2024/01/06 08:18:04;;;;;;;9.77;4.78;;;;;;;7.75;62.69;100866.66;5138459;27;20057;-68
2024/01/06 08:20:32;;;;;;;8.30;4.68;;;;;;;7.76;63.21;100872.84;5144972;27;20051;-68
2024/01/06 08:23:00;;;;;;;7.95;5.75;;;;;;;7.77;62.90;100880.66;5143320;27;20417;-69
2024/01/06 08:25:29;;;;;;;7.95;5.53;;;;;;;7.66;63.19;100886.59;5135920;27;20043;-68
2024/01/06 08:27:57;;;;;;;9.23;4.88;;;;;;;7.70;63.62;100881.66;5140454;27;20126;-71
2024/01/06 08:30:25;;;;;;;7.45;4.72;;;;;;;7.72;63.55;100884.97;5140465;27;20051;-71
2024/01/06 08:32:53;;;;;;;6.95;5.30;;;;;;;7.77;63.36;100895.88;5131791;27;20230;-68
2024/01/06 08:35:21;;;;;;;7.38;4.47;;;;;;;7.67;63.37;100900.78;5142667;27;20039;-69
2024/01/06 08:37:49;;;;;;;16.80;5.90;;;;;;;7.63;63.72;100903.03;5135043;27;20084;-67
2024/01/06 08:40:17;;;;;;;12.02;5.70;;;;;;;7.49;63.38;100907.53;5147435;27;20045;-67
2024/01/06 08:42:46;;;;;;;8.18;4.63;;;;;;;7.45;64.00;100900.09;5103358;27;20307;-69
2024/01/06 08:45:14;;;;;;;7.47;4.93;;;;;;;7.40;64.70;100897.19;5035539;28;20045;-68
2024/01/06 08:47:42;;;;;;;8.35;5.35;;;;;;;7.39;64.84;100909.75;5038357;28;20140;-69
2024/01/06 08:50:10;;;;;;;8.32;5.00;;;;;;;7.32;64.69;100911.56;5035779;28;20041;-70
2024/01/06 08:52:38;;;;;;;10.35;5.85;;;;;;;7.31;64.58;100917.94;5037362;27;20518;-69
2024/01/06 08:55:06;;;;;;;8.55;5.13;;;;;;;7.24;64.53;100921.59;5032657;28;20045;-68
2024/01/06 08:57:34;;;;;;;10.27;5.22;;;;;;;7.16;65.15;100918.06;5035304;28;20101;-68
2024/01/06 09:00:04;;;;;;;9.23;5.38;;;;;;;7.19;65.63;100925.69;5039536;27;20041;-71
2024/01/06 09:02:32;;;;;;;7.57;5.38;;;;;;;7.12;65.36;100932.84;5040514;28;20049;-66
2024/01/06 09:05:00;;;;;;;9.05;4.88;;;;;;;7.15;65.34;100939.66;5038629;27;20038;-69
2024/01/06 09:07:28;;;;;;;7.80;4.95;;;;;;;7.13;64.85;100931.00;5039384;27;20064;-69
2024/01/06 09:09:55;;;;;;;7.07;4.95;;;;;;;7.20;65.07;100947.91;5042792;28;20117;-69
2024/01/06 09:12:23;;;;;;;8.23;5.00;;;;;;;7.24;65.61;100948.34;5035809;28;20065;-69
2024/01/06 09:14:51;;;;;;;8.43;4.93;;;;;;;7.26;65.06;100956.97;5042880;28;20045;-69
2024/01/06 09:17:22;;;;;;;8.95;6.00;;;;;;;7.29;64.64;100960.09;5039518;28;20435;-70
2024/01/06 09:19:50;;;;;;;7.38;5.03;;;;;;;7.18;64.93;100944.59;5034048;27;20059;-70
2024/01/06 09:22:18;;;;;;;7.25;4.70;;;;;;;7.18;65.83;100963.31;5043322;28;20052;-70
2024/01/06 09:24:46;;;;;;;7.47;4.97;;;;;;;7.22;65.05;100964.56;5043024;28;20057;-70
2024/01/06 09:27:14;;;;;;;10.25;5.45;;;;;;;7.25;65.34;100966.03;5046566;27;20454;-70
2024/01/06 09:29:42;;;;;;;10.70;5.20;;;;;;;7.31;65.55;100963.38;5040295;28;20163;-70
2024/01/06 09:32:10;;;;;;;8.05;4.57;;;;;;;7.32;64.83;100974.91;5035478;28;20050;-70
2024/01/06 09:34:39;;;;;;;7.35;5.15;;;;;;;7.29;65.64;100976.13;5035929;28;20467;-70
2024/01/06 09:37:07;;;;;;;8.65;4.72;;;;;;;7.33;65.55;100985.41;5035527;28;20050;-69
2024/01/06 09:39:35;;;;;;;7.57;4.50;;;;;;;7.38;64.53;100982.13;5039159;27;20483;-69
2024/01/06 09:42:03;;;;;;;6.95;4.93;;;;;;;7.28;64.94;100987.84;5044529;28;20061;-70
2024/01/06 09:44:31;;;;;;;8.30;4.95;;;;;;;7.40;65.27;100988.09;5140813;27;20168;-69
2024/01/06 09:47:00;;;;;;;6.63;4.78;;;;;;;7.51;63.64;100993.72;5141690;27;20124;-69
2024/01/06 09:49:29;;;;;;;10.13;5.45;;;;;;;7.54;64.13;101003.19;5141268;27;20078;-71
2024/01/06 09:52:00;;;;;;;8.32;4.60;;;;;;;7.72;63.91;101013.38;5137813;27;20044;-69
2024/01/06 09:54:33;;;;;;;7.13;4.93;;;;;;;7.96;63.27;101009.34;5143787;27;20051;-69
2024/01/06 09:57:05;;;;;;;12.02;5.28;;;;;;;8.12;62.08;101012.50;5144592;27;20039;-69
2024/01/06 09:59:36;;;;;;;6.93;4.90;;;;;;;8.12;61.23;101023.19;5145048;27;20150;-70
2024/01/06 10:02:05;;;;;;;7.25;5.20;;;;;;;8.02;62.02;101019.25;5141537;27;20106;-68
2024/01/06 10:04:32;;;;;;;6.78;4.88;;;;;;;7.92;62.18;101018.81;5145091;27;20062;-70
2024/01/06 10:07:02;;;;;;;10.35;4.78;;;;;;;7.78;62.45;101029.44;5139058;27;20044;-69
2024/01/06 10:09:30;;;;;;;11.27;5.63;;;;;;;7.62;62.64;101036.97;5144627;27;20047;-69
2024/01/06 10:11:59;;;;;;;7.38;5.32;;;;;;;7.67;62.67;101037.22;5139145;27;20118;-69
2024/01/06 10:14:27;;;;;;;8.55;4.82;;;;;;;7.65;62.54;101042.75;5140669;27;20065;-69
2024/01/06 10:16:55;;;;;;;9.68;6.70;;;;;;;7.50;63.49;101042.06;5141424;27;20047;-67
2024/01/06 10:19:24;;;;;;;6.82;4.55;;;;;;;7.43;63.60;101047.38;5147210;27;20050;-68
2024/01/06 10:21:52;;;;;;;6.28;4.65;;;;;;;7.39;63.30;101048.78;5143311;27;20092;-68
2024/01/06 10:24:21;;;;;;;8.68;5.20;;;;;;;7.30;64.04;101047.28;5146836;27;20416;-71
2024/01/06 10:26:49;;;;;;;7.43;4.90;;;;;;;7.24;64.42;101045.38;5136145;27;20054;-70
2024/01/06 10:29:17;;;;;;;11.13;4.80;;;;;;;7.25;64.59;101049.72;5136192;27;20518;-70
2024/01/06 10:31:45;;;;;;;6.82;5.13;;;;;;;7.27;63.69;101049.50;5140820;27;20044;-67
2024/01/06 10:34:15;;;;;;;5.82;4.25;;;;;;;7.31;63.94;101046.25;5136546;27;20050;-73
2024/01/06 10:36:43;;;;;;;6.20;4.30;;;;;;;7.28;63.97;101049.31;5139568;27;20048;-74
2024/01/06 10:39:15;;;;;;;8.68;4.15;;;;;;;7.24;64.12;101047.22;5147015;27;20055;-71
2024/01/06 10:41:46;;;;;;;9.38;4.80;;;;;;;7.18;64.43;101043.50;5141923;27;20051;-70
2024/01/06 10:44:15;;;;;;;7.57;5.45;;;;;;;7.25;64.74;101065.75;5143531;27;20059;-67
2024/01/06 10:46:43;;;;;;;8.75;5.15;;;;;;;7.21;64.54;101061.81;5134514;27;20042;-68
2024/01/06 10:49:12;;;;;;;6.07;4.15;;;;;;;7.17;64.40;101063.22;5137745;27;20043;-68
2024/01/06 10:51:40;;;;;;;7.43;4.30;;;;;;;7.16;64.70;101067.75;5141862;27;20045;-67
2024/01/06 10:54:10;;;;;;;6.25;4.32;;;;;;;7.12;64.59;101063.81;5137781;27;20039;-69
2024/01/06 10:56:39;;;;;;;6.07;4.53;;;;;;;7.25;63.98;101064.94;5139971;27;20099;-68
2024/01/06 10:59:09;;;;;;;7.10;4.38;;;;;;;7.25;64.49;101070.28;5141778;27;20116;-65
2024/01/06 11:01:38;;;;;;;8.07;4.68;;;;;;;7.27;63.62;101073.56;5140978;27;20047;-68
2024/01/06 11:04:06;;;;;;;6.18;4.03;;;;;;;7.28;63.53;101072.56;5142866;27;20070;-65
2024/01/06 11:06:36;;;;;;;8.23;4.75;;;;;;;7.26;63.67;101070.06;5141576;27;20043;-67
2024/01/06 11:09:10;;;;;;;7.10;4.75;;;;;;;7.14;63.69;101071.63;5137668;27;20058;-66
2024/01/06 11:11:39;;;;;;;8.93;5.50;;;;;;;7.17;64.13;101080.09;5134435;27;20484;-67
2024/01/06 11:14:24;;;;;;;7.80;4.65;;;;;;;7.21;63.77;101077.84;5130694;27;20043;-67
2024/01/06 11:16:52;;;;;;;8.75;5.03;;;;;;;7.23;63.83;101086.50;5141761;27;20049;-67
2024/01/06 11:19:43;;;;;;;7.35;4.53;;;;;;;7.27;63.94;101089.63;5149865;27;20042;-69
2024/01/06 11:22:23;;;;;;;8.82;4.47;;;;;;;7.27;63.95;101087.78;5142801;27;20051;-69
2024/01/06 11:24:53;;;;;;;8.68;5.20;;;;;;;7.33;64.50;101088.84;5143661;27;20051;-72
2024/01/06 11:27:23;;;;;;;9.65;4.43;;;;;;;7.31;64.25;101091.72;5145623;27;20315;-67
2024/01/06 11:29:55;;;;;;;7.53;4.78;;;;;;;7.29;64.04;101090.25;5145282;27;20071;-68
2024/01/06 11:32:35;;;;;;;7.85;4.60;;;;;;;7.24;64.41;101085.47;5143625;27;20063;-68
2024/01/06 11:35:08;;;;;;;7.43;4.38;;;;;;;7.17;64.74;101092.63;5145821;27;20039;-70